createdAt,value
2022-09-11T00:01:14.659Z,16.80
2022-09-11T00:03:43.104Z,16.80
2022-09-11T00:06:12.823Z,16.80
2022-09-11T00:08:41.138Z,16.90
2022-09-11T00:11:16.645Z,16.80
2022-09-11T00:13:48.716Z,16.80
2022-09-11T00:16:26.763Z,16.80
2022-09-11T00:18:55.345Z,16.90
2022-09-11T00:21:22.587Z,16.80
2022-09-11T00:23:49.760Z,16.80
2022-09-11T00:26:18.375Z,16.70
2022-09-11T00:28:45.832Z,16.70
2022-09-11T00:31:15.578Z,16.70
2022-09-11T00:33:42.681Z,16.70
2022-09-11T00:36:14.289Z,16.60
2022-09-11T00:38:41.230Z,16.60
2022-09-11T00:41:22.519Z,16.60
2022-09-11T00:43:51.372Z,16.60
2022-09-11T00:46:18.365Z,16.60
2022-09-11T00:48:50.138Z,16.60
2022-09-11T00:51:29.227Z,16.60
2022-09-11T00:53:58.331Z,16.60
2022-09-11T00:56:29.027Z,16.50
2022-09-11T00:58:57.572Z,16.60
2022-09-11T01:01:24.337Z,16.60
2022-09-11T01:03:51.517Z,16.60
2022-09-11T01:06:20.872Z,16.60
2022-09-11T01:08:47.468Z,16.60
2022-09-11T01:11:56.047Z,16.60
2022-09-11T01:14:31.326Z,16.60
2022-09-11T01:17:19.265Z,16.50
2022-09-11T01:20:20.908Z,16.50
2022-09-11T01:23:19.440Z,16.40
2022-09-11T01:25:59.790Z,16.40
2022-09-11T01:28:36.408Z,16.40
2022-09-11T01:31:10.180Z,16.40
2022-09-11T01:33:45.912Z,16.40
2022-09-11T01:36:41.081Z,16.30
2022-09-11T01:39:07.737Z,16.20
2022-09-11T01:41:45.413Z,16.20
2022-09-11T01:44:37.865Z,16.20
2022-09-11T01:47:07.043Z,16.10
2022-09-11T01:49:56.022Z,16.10
2022-09-11T01:52:29.102Z,16.00
2022-09-11T01:55:03.743Z,16.00
2022-09-11T01:57:36.927Z,16.00
2022-09-11T02:00:08.912Z,16.00
2022-09-11T02:02:39.976Z,16.00
2022-09-11T02:05:22.912Z,16.10
2022-09-11T02:07:55.754Z,16.10
2022-09-11T02:10:40.287Z,16.00
2022-09-11T02:13:31.085Z,16.10
2022-09-11T02:16:09.280Z,16.10
2022-09-11T02:18:47.364Z,15.90
2022-09-11T02:21:13.959Z,15.80
2022-09-11T02:23:40.571Z,15.80
2022-09-11T02:26:09.580Z,15.90
2022-09-11T02:28:37.276Z,15.90
2022-09-11T02:31:04.294Z,15.90
2022-09-11T02:33:33.870Z,15.90
2022-09-11T02:36:22.153Z,15.90
2022-09-11T02:39:22.900Z,15.90
2022-09-11T02:42:15.695Z,15.90
2022-09-11T02:45:00.285Z,15.90
2022-09-11T02:47:41.933Z,15.90
2022-09-11T02:50:26.620Z,15.90
2022-09-11T02:53:11.914Z,15.90
2022-09-11T02:56:02.122Z,15.80
2022-09-11T02:58:46.310Z,15.80
2022-09-11T03:01:13.127Z,16.00
2022-09-11T03:03:41.629Z,16.00
2022-09-11T03:06:23.437Z,16.00
2022-09-11T03:08:50.310Z,16.00
2022-09-11T03:11:20.340Z,16.00
2022-09-11T03:13:46.857Z,16.10
2022-09-11T03:16:14.348Z,16.10
2022-09-11T03:18:41.037Z,16.10
2022-09-11T03:21:07.619Z,16.10
2022-09-11T03:23:34.285Z,16.10
2022-09-11T03:26:00.843Z,16.20
2022-09-11T03:28:27.390Z,16.20
2022-09-11T03:30:53.991Z,16.20
2022-09-11T03:33:20.629Z,16.20
2022-09-11T03:35:47.259Z,16.10
2022-09-11T03:38:13.803Z,16.20
2022-09-11T03:40:43.132Z,16.00
2022-09-11T03:43:10.236Z,16.00
2022-09-11T03:45:36.841Z,16.00
2022-09-11T03:48:03.487Z,16.00
2022-09-11T03:50:30.028Z,16.00
2022-09-11T03:52:56.549Z,16.00
2022-09-11T03:55:23.810Z,15.90
2022-09-11T03:57:50.323Z,16.00
2022-09-11T04:00:17.117Z,16.00
2022-09-11T04:02:43.665Z,16.00
2022-09-11T04:05:10.609Z,16.00
2022-09-11T04:07:38.461Z,16.00
2022-09-11T04:10:06.665Z,16.10
2022-09-11T04:12:33.683Z,16.20
2022-09-11T04:15:00.202Z,16.20
2022-09-11T04:17:28.794Z,16.30
2022-09-11T04:19:55.375Z,16.20
2022-09-11T04:22:22.579Z,16.20
2022-09-11T04:24:49.119Z,16.30
2022-09-11T04:27:15.639Z,16.30
2022-09-11T04:29:42.964Z,16.30
2022-09-11T04:32:11.665Z,16.30
2022-09-11T04:34:38.196Z,16.30
2022-09-11T04:37:04.728Z,16.20
2022-09-11T04:39:31.797Z,16.20
2022-09-11T04:41:58.311Z,16.20
2022-09-11T04:44:26.160Z,16.20
2022-09-11T04:46:52.660Z,16.20
2022-09-11T04:49:19.267Z,16.20
2022-09-11T04:51:45.931Z,16.30
2022-09-11T04:54:17.965Z,16.30
2022-09-11T04:56:46.099Z,16.30
2022-09-11T04:59:30.551Z,16.30
2022-09-11T05:01:57.739Z,16.30
2022-09-11T05:04:26.440Z,16.30
2022-09-11T05:06:53.393Z,16.30
2022-09-11T05:09:19.969Z,16.30
2022-09-11T05:11:46.868Z,16.20
2022-09-11T05:14:13.416Z,16.10
2022-09-11T05:16:39.988Z,16.10
2022-09-11T05:19:07.685Z,16.00
2022-09-11T05:21:35.255Z,15.90
2022-09-11T05:24:03.208Z,15.70
2022-09-11T05:26:35.169Z,15.70
2022-09-11T05:29:04.920Z,15.70
2022-09-11T05:31:34.327Z,15.70
2022-09-11T05:34:03.191Z,15.60
2022-09-11T05:36:31.043Z,15.50
2022-09-11T05:38:58.372Z,15.40
2022-09-11T05:41:24.979Z,15.20
2022-09-11T05:43:51.673Z,15.30
2022-09-11T05:46:19.592Z,15.30
2022-09-11T05:48:46.331Z,15.40
2022-09-11T05:51:21.432Z,15.40
2022-09-11T05:53:52.315Z,15.50
2022-09-11T05:56:21.306Z,15.60
2022-09-11T05:58:48.988Z,15.60
2022-09-11T06:01:18.639Z,15.60
2022-09-11T06:03:49.225Z,15.50
2022-09-11T06:06:17.615Z,15.60
2022-09-11T06:08:44.858Z,15.60
2022-09-11T06:11:14.893Z,15.60
2022-09-11T06:13:43.656Z,15.60
2022-09-11T06:16:17.308Z,15.60
2022-09-11T06:18:49.154Z,15.70
2022-09-11T06:21:19.945Z,15.70
2022-09-11T06:23:51.858Z,15.70
2022-09-11T06:26:21.293Z,15.70
2022-09-11T06:28:48.267Z,15.60
2022-09-11T06:31:17.026Z,15.60
2022-09-11T06:33:44.208Z,15.60
2022-09-11T06:36:16.132Z,15.70
2022-09-11T06:38:44.285Z,15.60
2022-09-11T06:41:14.005Z,15.70
2022-09-11T06:43:41.326Z,15.60
2022-09-11T06:46:13.654Z,15.60
2022-09-11T06:48:41.871Z,15.70
2022-09-11T06:51:11.480Z,15.70
2022-09-11T06:53:38.955Z,15.80
2022-09-11T06:56:06.849Z,15.60
2022-09-11T06:58:33.727Z,15.60
2022-09-11T07:01:04.892Z,15.70
2022-09-11T07:03:32.276Z,15.70
2022-09-11T07:06:00.752Z,15.70
2022-09-11T07:08:30.816Z,15.70
2022-09-11T07:11:04.548Z,15.70
2022-09-11T07:13:43.264Z,15.70
2022-09-11T07:16:13.300Z,15.80
2022-09-11T07:18:41.931Z,15.80
2022-09-11T07:21:13.728Z,15.70
2022-09-11T07:23:41.255Z,15.70
2022-09-11T07:26:10.712Z,15.70
2022-09-11T07:28:38.319Z,15.80
2022-09-11T07:31:12.320Z,15.80
2022-09-11T07:33:40.508Z,15.60
2022-09-11T07:36:27.576Z,15.80
2022-09-11T07:38:55.044Z,15.90
2022-09-11T07:41:22.872Z,15.80
2022-09-11T07:43:53.931Z,15.90
2022-09-11T07:46:21.376Z,15.90
2022-09-11T07:48:48.596Z,16.00
2022-09-11T07:51:16.883Z,16.10
2022-09-11T07:53:49.833Z,16.20
2022-09-11T07:56:19.640Z,16.30
2022-09-11T07:58:46.985Z,16.20
2022-09-11T08:01:16.738Z,16.20
2022-09-11T08:03:44.102Z,16.30
2022-09-11T08:06:21.414Z,16.30
2022-09-11T08:08:54.102Z,16.40
2022-09-11T08:11:21.643Z,16.60
2022-09-11T08:13:53.083Z,16.70
2022-09-11T08:16:20.952Z,16.70
2022-09-11T08:18:48.175Z,16.60
2022-09-11T08:21:15.760Z,16.50
2022-09-11T08:23:43.484Z,16.40
2022-09-11T08:26:12.668Z,16.40
2022-09-11T08:28:40.228Z,16.50
2022-09-11T08:31:07.110Z,16.70
2022-09-11T08:33:33.997Z,16.70
2022-09-11T08:36:02.883Z,16.80
2022-09-11T08:38:29.762Z,16.90
2022-09-11T08:40:58.925Z,17.00
2022-09-11T08:43:33.500Z,17.10
2022-09-11T08:46:05.034Z,17.10
2022-09-11T08:48:56.934Z,17.10
2022-09-11T08:51:25.857Z,17.00
2022-09-11T08:53:54.422Z,16.80
2022-09-11T08:56:23.672Z,16.80
2022-09-11T08:59:05.204Z,16.80
2022-09-11T09:01:43.691Z,17.00
2022-09-11T09:04:31.344Z,17.10
2022-09-11T09:07:23.844Z,17.40
2022-09-11T09:09:55.976Z,17.40
2022-09-11T09:12:32.315Z,17.30
2022-09-11T09:15:01.935Z,17.20
2022-09-11T09:17:43.309Z,17.30
2022-09-11T09:20:29.768Z,17.30
2022-09-11T09:23:03.769Z,17.50
2022-09-11T09:25:36.601Z,17.60
2022-09-11T09:28:19.972Z,17.60
2022-09-11T09:30:59.854Z,17.70
2022-09-11T09:33:35.716Z,18.00
2022-09-11T09:36:14.671Z,18.10
2022-09-11T09:38:41.398Z,18.10
2022-09-11T09:41:08.657Z,18.00
2022-09-11T09:43:42.762Z,17.90
2022-09-11T09:46:34.812Z,17.80
2022-09-11T09:49:01.415Z,17.90
2022-09-11T09:51:28.284Z,18.00
2022-09-11T09:54:01.580Z,18.00
2022-09-11T09:56:31.585Z,18.10
2022-09-11T09:59:14.951Z,18.10
2022-09-11T10:01:45.510Z,18.10
2022-09-11T10:04:22.487Z,17.90
2022-09-11T10:06:52.088Z,17.90
2022-09-11T10:09:25.064Z,18.10
2022-09-11T10:11:57.620Z,18.30
2022-09-11T10:14:49.944Z,18.40
2022-09-11T10:17:22.602Z,18.50
2022-09-11T10:19:50.825Z,18.60
2022-09-11T10:22:32.425Z,18.50
2022-09-11T10:25:00.435Z,18.60
2022-09-11T10:27:29.086Z,18.70
2022-09-11T10:29:55.896Z,18.80
2022-09-11T10:32:24.647Z,18.80
2022-09-11T10:34:52.625Z,19.10
2022-09-11T10:37:31.387Z,19.10
2022-09-11T10:40:08.857Z,19.30
2022-09-11T10:42:38.072Z,19.40
2022-09-11T10:45:18.629Z,19.30
2022-09-11T10:47:51.263Z,19.20
2022-09-11T10:50:17.967Z,19.30
2022-09-11T10:53:02.369Z,19.50
2022-09-11T10:55:41.324Z,19.90
2022-09-11T10:58:13.300Z,20.10
2022-09-11T11:00:40.325Z,20.30
2022-09-11T11:03:17.184Z,20.20
2022-09-11T11:06:06.221Z,20.00
2022-09-11T11:09:10.643Z,19.90
2022-09-11T11:11:46.232Z,19.90
2022-09-11T11:14:54.613Z,19.80
2022-09-11T11:17:40.594Z,19.60
2022-09-11T11:20:26.520Z,19.60
2022-09-11T11:23:15.914Z,19.50
2022-09-11T11:26:07.656Z,19.30
2022-09-11T11:29:02.021Z,19.40
2022-09-11T11:31:40.306Z,19.50
2022-09-11T11:34:34.449Z,19.40
2022-09-11T11:37:23.633Z,19.30
2022-09-11T11:40:10.064Z,19.30
2022-09-11T11:42:55.357Z,19.30
2022-09-11T11:45:38.748Z,19.40
2022-09-11T11:48:14.479Z,19.60
2022-09-11T11:50:50.499Z,19.70
2022-09-11T11:53:35.140Z,19.90
2022-09-11T11:56:22.575Z,20.20
2022-09-11T11:59:01.384Z,20.40
2022-09-11T12:01:44.938Z,20.60
2022-09-11T12:04:17.421Z,20.60
2022-09-11T12:06:43.966Z,20.70
2022-09-11T12:09:13.687Z,20.60
2022-09-11T12:11:40.415Z,20.70
2022-09-11T12:14:07.290Z,20.70
2022-09-11T12:16:36.960Z,20.40
2022-09-11T12:19:20.152Z,20.30
2022-09-11T12:21:52.558Z,20.20
2022-09-11T12:24:45.107Z,20.00
2022-09-11T12:27:33.600Z,20.10
2022-09-11T12:30:22.539Z,20.20
2022-09-11T12:32:51.369Z,20.30
2022-09-11T12:35:41.534Z,20.40
2022-09-11T12:38:09.119Z,20.40
2022-09-11T12:40:41.391Z,20.40
2022-09-11T12:43:35.851Z,20.60
2022-09-11T12:46:24.365Z,20.70
2022-09-11T12:49:23.750Z,21.00
2022-09-11T12:52:24.799Z,20.90
2022-09-11T12:54:52.654Z,20.90
2022-09-11T12:57:30.690Z,21.00
2022-09-11T13:00:01.360Z,21.30
2022-09-11T13:02:42.375Z,21.50
2022-09-11T13:05:37.946Z,21.40
2022-09-11T13:08:23.992Z,21.40
2022-09-11T13:10:50.783Z,21.00
2022-09-11T13:13:35.896Z,20.70
2022-09-11T13:16:22.819Z,20.80
2022-09-11T13:18:49.469Z,20.80
2022-09-11T13:21:20.318Z,20.70
2022-09-11T13:23:49.727Z,20.80
2022-09-11T13:26:35.993Z,21.00
2022-09-11T13:29:02.587Z,21.40
2022-09-11T13:31:37.275Z,21.50
2022-09-11T13:34:07.196Z,21.60
2022-09-11T13:36:36.816Z,21.60
2022-09-11T13:39:04.273Z,21.60
2022-09-11T13:41:35.091Z,21.80
2022-09-11T13:44:03.074Z,21.90
2022-09-11T13:46:34.480Z,21.80
2022-09-11T13:49:12.684Z,21.80
2022-09-11T13:51:48.462Z,21.60
2022-09-11T13:54:33.939Z,21.30
2022-09-11T13:57:00.421Z,21.50
2022-09-11T13:59:38.587Z,21.80
2022-09-11T14:02:17.095Z,22.10
2022-09-11T14:04:46.226Z,21.90
2022-09-11T14:07:19.951Z,21.70
2022-09-11T14:09:56.196Z,21.60
2022-09-11T14:12:22.961Z,21.40
2022-09-11T14:14:53.774Z,21.40
2022-09-11T14:17:20.896Z,21.60
2022-09-11T14:19:50.933Z,21.70
2022-09-11T14:22:26.120Z,21.80
2022-09-11T14:25:19.378Z,22.00
2022-09-11T14:27:46.127Z,22.10
2022-09-11T14:30:28.152Z,22.10
2022-09-11T14:33:14.018Z,21.80
2022-09-11T14:35:40.855Z,21.80
2022-09-11T14:38:11.053Z,21.90
2022-09-11T14:40:37.748Z,21.90
2022-09-11T14:43:05.680Z,21.70
2022-09-11T14:45:34.860Z,21.60
2022-09-11T14:48:01.856Z,21.70
2022-09-11T14:50:30.805Z,21.90
2022-09-11T14:52:57.365Z,22.20
2022-09-11T14:55:23.962Z,22.40
2022-09-11T14:57:50.547Z,22.40
2022-09-11T15:00:18.633Z,22.50
2022-09-11T15:02:47.949Z,22.30
2022-09-11T15:05:19.553Z,22.10
2022-09-11T15:07:46.218Z,22.00
2022-09-11T15:10:15.222Z,21.90
2022-09-11T15:12:42.500Z,21.90
2022-09-11T15:15:09.513Z,21.90
2022-09-11T15:17:36.465Z,22.00
2022-09-11T15:20:07.058Z,22.40
2022-09-11T15:22:33.871Z,22.90
2022-09-11T15:25:00.436Z,22.90
2022-09-11T15:27:28.164Z,23.00
2022-09-11T15:29:57.359Z,23.20
2022-09-11T15:32:24.000Z,23.40
2022-09-11T15:34:51.583Z,23.60
2022-09-11T15:37:18.220Z,23.60
2022-09-11T15:39:44.911Z,23.60
2022-09-11T15:42:11.701Z,23.60
2022-09-11T15:44:38.287Z,23.40
2022-09-11T15:47:05.080Z,23.50
2022-09-11T15:49:32.043Z,23.80
2022-09-11T15:51:59.625Z,23.90
2022-09-11T15:54:27.304Z,23.80
2022-09-11T15:56:54.668Z,23.60
2022-09-11T15:59:21.743Z,23.40
2022-09-11T16:01:48.848Z,23.00
2022-09-11T16:04:21.772Z,22.70
2022-09-11T16:06:49.263Z,22.70
2022-09-11T16:09:19.884Z,22.80
2022-09-11T16:11:47.796Z,23.00
2022-09-11T16:14:23.427Z,23.10
2022-09-11T16:16:50.632Z,23.10
2022-09-11T16:19:19.924Z,22.80
2022-09-11T16:21:47.486Z,22.80
2022-09-11T16:24:17.269Z,22.60
2022-09-11T16:26:44.959Z,22.60
2022-09-11T16:29:14.559Z,22.70
2022-09-11T16:31:42.384Z,22.70
2022-09-11T16:34:09.364Z,22.80
2022-09-11T16:36:38.879Z,23.10
2022-09-11T16:39:07.876Z,23.50
2022-09-11T16:41:35.164Z,23.80
2022-09-11T16:44:01.920Z,24.10
2022-09-11T16:46:28.540Z,24.20
2022-09-11T16:49:01.059Z,24.10
2022-09-11T16:51:33.898Z,24.00
2022-09-11T16:54:00.624Z,23.50
2022-09-11T16:56:27.781Z,23.20
2022-09-11T16:58:54.752Z,23.10
2022-09-11T17:01:24.290Z,23.00
2022-09-11T17:03:53.349Z,23.00
2022-09-11T17:06:21.572Z,22.90
2022-09-11T17:08:50.686Z,22.80
2022-09-11T17:11:19.855Z,22.80
2022-09-11T17:13:47.196Z,22.70
2022-09-11T17:16:19.478Z,22.60
2022-09-11T17:18:54.412Z,22.50
2022-09-11T17:21:25.251Z,22.40
2022-09-11T17:23:54.330Z,22.50
2022-09-11T17:26:22.229Z,22.50
2022-09-11T17:28:50.367Z,22.50
2022-09-11T17:31:19.107Z,22.70
2022-09-11T17:33:46.709Z,22.70
2022-09-11T17:36:15.031Z,22.80
2022-09-11T17:38:41.725Z,22.80
2022-09-11T17:41:09.140Z,22.80
2022-09-11T17:43:37.276Z,22.70
2022-09-11T17:46:10.302Z,22.50
2022-09-11T17:48:39.578Z,22.40
2022-09-11T17:51:10.948Z,22.30
2022-09-11T17:53:41.397Z,22.20
2022-09-11T17:56:10.806Z,22.10
2022-09-11T17:58:39.019Z,21.90
2022-09-11T18:01:06.022Z,21.90
2022-09-11T18:03:33.376Z,21.90
2022-09-11T18:06:01.840Z,21.80
2022-09-11T18:08:31.146Z,21.90
2022-09-11T18:11:01.002Z,21.70
2022-09-11T18:13:34.440Z,21.50
2022-09-11T18:16:03.193Z,21.00
2022-09-11T18:18:30.576Z,20.70
2022-09-11T18:21:04.419Z,20.70
2022-09-11T18:23:31.056Z,20.80
2022-09-11T18:25:57.609Z,20.90
2022-09-11T18:28:24.187Z,21.00
2022-09-11T18:30:51.011Z,21.00
2022-09-11T18:33:17.681Z,20.80
2022-09-11T18:35:46.527Z,20.70
2022-09-11T18:38:13.155Z,20.60
2022-09-11T18:40:39.828Z,20.50
2022-09-11T18:43:08.663Z,20.40
2022-09-11T18:45:36.077Z,20.30
2022-09-11T18:48:04.655Z,20.40
2022-09-11T18:50:31.289Z,20.40
2022-09-11T18:52:57.867Z,20.50
2022-09-11T18:55:24.477Z,20.40
2022-09-11T18:57:51.317Z,20.30
2022-09-11T19:00:18.675Z,20.20
2022-09-11T19:02:46.652Z,20.20
2022-09-11T19:05:15.466Z,20.00
2022-09-11T19:07:43.817Z,19.90
2022-09-11T19:10:11.569Z,19.80
2022-09-11T19:12:39.145Z,19.80
2022-09-11T19:15:07.439Z,19.80
2022-09-11T19:17:34.999Z,19.80
2022-09-11T19:20:01.716Z,19.70
2022-09-11T19:22:29.092Z,19.80
2022-09-11T19:24:55.615Z,19.80
2022-09-11T19:27:25.920Z,19.80
2022-09-11T19:29:53.273Z,19.80
2022-09-11T19:32:23.435Z,19.90
2022-09-11T19:34:50.357Z,19.90
2022-09-11T19:37:19.943Z,20.00
2022-09-11T19:39:50.622Z,20.10
2022-09-11T19:42:17.467Z,20.20
2022-09-11T19:44:44.220Z,20.30
2022-09-11T19:47:10.874Z,20.30
2022-09-11T19:49:37.416Z,20.20
2022-09-11T19:52:03.995Z,20.00
2022-09-11T19:54:30.712Z,19.90
2022-09-11T19:56:57.542Z,20.00
2022-09-11T19:59:24.114Z,20.00
2022-09-11T20:01:50.689Z,20.10
2022-09-11T20:04:18.926Z,20.10
2022-09-11T20:09:30.301Z,20.10
2022-09-11T20:11:57.729Z,20.10
2022-09-11T20:14:24.304Z,20.10
2022-09-11T20:16:50.927Z,20.10
2022-09-11T20:19:17.651Z,20.20
2022-09-11T20:21:44.300Z,20.10
2022-09-11T20:24:10.867Z,20.00
2022-09-11T20:26:37.507Z,20.00
2022-09-11T20:29:11.943Z,20.00
2022-09-11T20:31:47.016Z,20.00
2022-09-11T20:34:18.822Z,19.90
2022-09-11T20:36:45.779Z,19.70
2022-09-11T20:39:15.731Z,19.60
2022-09-11T20:41:42.984Z,19.50
2022-09-11T20:44:09.928Z,19.50
2022-09-11T20:46:36.785Z,19.50
2022-09-11T20:49:05.072Z,19.60
2022-09-11T20:51:32.731Z,19.50
2022-09-11T20:54:00.566Z,19.50
2022-09-11T20:56:27.500Z,19.40
2022-09-11T20:58:54.028Z,19.20
2022-09-11T21:01:23.039Z,18.90
2022-09-11T21:03:52.758Z,18.60
2022-09-11T21:06:24.958Z,18.50
2022-09-11T21:08:54.340Z,18.40
2022-09-11T21:11:20.980Z,18.40
2022-09-11T21:13:47.928Z,18.40
2022-09-11T21:16:15.865Z,18.40
2022-09-11T21:18:54.051Z,18.50
2022-09-11T21:21:21.979Z,18.60
2022-09-11T21:23:49.048Z,18.70
2022-09-11T21:26:17.181Z,18.70
2022-09-11T21:28:44.084Z,18.70
2022-09-11T21:31:11.182Z,18.70
2022-09-11T21:33:37.884Z,18.60
2022-09-11T21:36:05.406Z,18.60
2022-09-11T21:38:31.968Z,18.70
2022-09-11T21:41:00.640Z,18.60
2022-09-11T21:43:27.817Z,18.60
2022-09-11T21:45:54.580Z,18.60
2022-09-11T21:48:21.167Z,18.60
2022-09-11T21:50:47.710Z,18.60
2022-09-11T21:53:14.511Z,18.60
2022-09-11T21:55:43.458Z,18.50
2022-09-11T21:58:18.203Z,18.50
2022-09-11T22:00:47.551Z,18.40
2022-09-11T22:03:16.008Z,18.40
2022-09-11T22:05:44.057Z,18.30
2022-09-11T22:08:11.919Z,18.20
2022-09-11T22:10:46.879Z,18.20
2022-09-11T22:13:13.814Z,18.20
2022-09-11T22:15:44.975Z,18.20
2022-09-11T22:18:12.092Z,18.10
2022-09-11T22:20:39.706Z,18.10
2022-09-11T22:23:07.043Z,18.00
2022-09-11T22:25:36.477Z,18.00
2022-09-11T22:28:04.273Z,18.00
2022-09-11T22:30:30.832Z,17.80
2022-09-11T22:32:57.516Z,17.70
2022-09-11T22:35:24.047Z,17.60
2022-09-11T22:37:50.591Z,17.50
2022-09-11T22:40:17.177Z,17.50
2022-09-11T22:42:43.783Z,17.50
2022-09-11T22:45:10.959Z,17.40
2022-09-11T22:47:37.489Z,17.30
2022-09-11T22:50:04.344Z,17.30
2022-09-11T22:52:31.221Z,17.40
2022-09-11T22:54:57.755Z,17.40
2022-09-11T22:57:27.858Z,17.40
2022-09-11T22:59:55.948Z,17.40
2022-09-11T23:02:22.778Z,17.30
2022-09-11T23:05:07.964Z,17.30
2022-09-11T23:07:34.691Z,17.30
2022-09-11T23:10:01.732Z,17.20
2022-09-11T23:12:28.319Z,17.20
2022-09-11T23:14:54.880Z,17.10
2022-09-11T23:17:21.383Z,17.00
2022-09-11T23:19:48.685Z,17.00
2022-09-11T23:22:15.228Z,17.00
2022-09-11T23:24:41.981Z,16.90
2022-09-11T23:27:08.574Z,17.00
2022-09-11T23:29:35.209Z,16.90
2022-09-11T23:32:02.011Z,16.80
2022-09-11T23:34:28.927Z,16.70
2022-09-11T23:36:55.429Z,16.60
2022-09-11T23:39:21.966Z,16.60
2022-09-11T23:41:49.056Z,16.60
2022-09-11T23:44:15.645Z,16.60
2022-09-11T23:46:42.232Z,16.50
2022-09-11T23:49:11.071Z,16.60
2022-09-11T23:51:37.791Z,16.60
2022-09-11T23:54:05.201Z,16.60
2022-09-11T23:56:31.753Z,16.50
2022-09-11T23:58:58.273Z,16.40
